Dominion Park, New York
Current Conditions -  °F | °C
As of 7:54 PM on Monday 22 Dec 2014 (Local Time) from KSYR Reporting Station
Broken Clouds Broken Clouds  
Wind Chill: 24°   Ceiling: 20000
Heat Index: 32°   Visibility: 10mi
Dew Point: 28°   Wind: 10mph
Humidity: 85%   Direction: 80°E
Pressure: 30.17"   Gusts: NA
Location:  43.1489°N, 76.2142°W
Report Text: KSYR 230054Z 08009KT 10SM SCT034 SCT100 BKN200 00/M02 A3017 RMK AO2 SLP219 T00001022
Loading
Personal Weather Stations






























Interactive Weather Map New forecast layout! Learn more

10-Day Weather Forecast

Advertisements
Track Severe Weather on mobile